createdAt,value
2022-09-15T00:02:24.349Z,17.00
2022-09-15T00:04:50.765Z,17.05
2022-09-15T00:07:17.343Z,17.04
2022-09-15T00:09:43.632Z,17.04
2022-09-15T00:12:10.007Z,16.98
2022-09-15T00:14:36.335Z,16.94
2022-09-15T00:17:02.723Z,16.92
2022-09-15T00:19:29.257Z,16.90
2022-09-15T00:21:55.560Z,16.90
2022-09-15T00:24:21.874Z,16.89
2022-09-15T00:26:48.186Z,16.89
2022-09-15T00:29:14.474Z,16.90
2022-09-15T00:31:40.806Z,16.91
2022-09-15T00:34:07.319Z,16.89
2022-09-15T00:36:33.932Z,16.88
2022-09-15T00:39:00.246Z,16.88
2022-09-15T00:41:26.641Z,16.87
2022-09-15T00:44:01.789Z,16.87
2022-09-15T00:46:31.715Z,16.87
2022-09-15T00:49:09.260Z,16.84
2022-09-15T00:51:42.896Z,16.86
2022-09-15T00:54:16.013Z,16.85
2022-09-15T00:56:44.228Z,16.85
2022-09-15T00:59:16.861Z,16.86
2022-09-15T01:01:46.019Z,16.85
2022-09-15T01:04:14.631Z,16.88
2022-09-15T01:06:46.730Z,16.85
2022-09-15T01:09:24.894Z,16.88
2022-09-15T01:11:51.563Z,16.88
2022-09-15T01:14:17.865Z,16.88
2022-09-15T01:17:03.772Z,16.90
2022-09-15T01:20:02.905Z,16.88
2022-09-15T01:23:03.150Z,16.86
2022-09-15T01:26:17.709Z,16.89
2022-09-15T01:29:21.884Z,16.88
2022-09-15T01:32:16.479Z,16.88
2022-09-15T01:34:55.815Z,16.88
2022-09-15T01:37:30.130Z,16.87
2022-09-15T01:40:00.581Z,16.86
2022-09-15T01:42:27.871Z,16.87
2022-09-15T01:45:07.497Z,16.84
2022-09-15T01:47:35.247Z,16.84
2022-09-15T01:50:08.911Z,16.83
2022-09-15T01:52:36.742Z,16.84
2022-09-15T01:55:11.545Z,16.84
2022-09-15T01:57:37.893Z,16.90
2022-09-15T02:00:05.841Z,16.93
2022-09-15T02:02:38.067Z,16.94
2022-09-15T02:05:20.659Z,16.99
2022-09-15T02:08:09.672Z,16.96
2022-09-15T02:10:49.591Z,16.98
2022-09-15T02:13:22.491Z,16.95
2022-09-15T02:15:56.738Z,16.92
2022-09-15T02:18:45.838Z,17.14
2022-09-15T02:21:18.808Z,17.19
2022-09-15T02:23:57.016Z,17.20
2022-09-15T02:26:29.018Z,17.12
2022-09-15T02:28:59.883Z,17.10
2022-09-15T02:31:27.729Z,17.08
2022-09-15T02:33:59.065Z,16.99
2022-09-15T02:36:32.999Z,16.97
2022-09-15T02:39:04.852Z,16.86
2022-09-15T02:41:33.781Z,16.91
2022-09-15T02:44:00.087Z,16.98
2022-09-15T02:46:26.503Z,16.91
2022-09-15T02:48:53.493Z,16.91
2022-09-15T02:51:20.200Z,16.83
2022-09-15T02:53:46.545Z,16.84
2022-09-15T02:56:13.511Z,16.81
2022-09-15T02:58:39.803Z,16.80
2022-09-15T03:01:07.707Z,16.79
2022-09-15T03:03:34.828Z,16.83
2022-09-15T03:06:18.597Z,16.86
2022-09-15T03:08:49.589Z,16.86
2022-09-15T03:11:17.723Z,16.84
2022-09-15T03:13:44.067Z,16.78
2022-09-15T03:16:12.136Z,16.74
2022-09-15T03:18:39.427Z,16.78
2022-09-15T03:21:09.342Z,16.73
2022-09-15T03:23:36.392Z,16.71
2022-09-15T03:26:02.885Z,16.76
2022-09-15T03:28:29.667Z,16.78
2022-09-15T03:30:56.043Z,16.76
2022-09-15T03:33:23.324Z,16.79
2022-09-15T03:35:51.136Z,16.76
2022-09-15T03:38:17.771Z,16.89
2022-09-15T03:40:44.452Z,16.85
2022-09-15T03:43:15.455Z,16.94
2022-09-15T03:45:44.931Z,16.84
2022-09-15T03:48:11.303Z,16.81
2022-09-15T03:50:37.624Z,16.73
2022-09-15T03:53:03.957Z,16.71
2022-09-15T03:55:30.286Z,16.69
2022-09-15T03:57:56.593Z,16.56
2022-09-15T04:00:22.891Z,16.54
2022-09-15T04:02:49.249Z,16.57
2022-09-15T04:05:15.799Z,16.52
2022-09-15T04:07:42.193Z,16.51
2022-09-15T04:10:09.480Z,16.45
2022-09-15T04:12:36.300Z,16.44
2022-09-15T04:15:03.970Z,16.43
2022-09-15T04:17:31.081Z,16.41
2022-09-15T04:19:57.741Z,16.27
2022-09-15T04:22:26.378Z,16.28
2022-09-15T04:24:52.911Z,16.27
2022-09-15T04:27:19.284Z,16.27
2022-09-15T04:29:46.039Z,16.26
2022-09-15T04:32:12.377Z,16.24
2022-09-15T04:34:41.418Z,16.27
2022-09-15T04:37:07.937Z,16.24
2022-09-15T04:39:34.314Z,16.19
2022-09-15T04:42:01.017Z,16.17
2022-09-15T04:44:27.303Z,16.10
2022-09-15T04:46:54.280Z,15.98
2022-09-15T04:49:20.666Z,15.94
2022-09-15T04:51:47.098Z,15.83
2022-09-15T04:54:13.559Z,15.74
2022-09-15T04:56:39.877Z,15.79
2022-09-15T04:59:06.265Z,15.74
2022-09-15T05:01:35.145Z,15.72
2022-09-15T05:04:05.817Z,15.66
2022-09-15T05:06:32.792Z,15.58
2022-09-15T05:08:59.384Z,15.58
2022-09-15T05:11:26.983Z,15.54
2022-09-15T05:13:53.887Z,15.57
2022-09-15T05:16:23.648Z,15.58
2022-09-15T05:18:51.523Z,15.44
2022-09-15T05:21:20.162Z,15.46
2022-09-15T05:23:47.300Z,15.51
2022-09-15T05:26:16.500Z,15.43
2022-09-15T05:28:43.165Z,15.44
2022-09-15T05:31:11.911Z,15.44
2022-09-15T05:33:38.652Z,15.42
2022-09-15T05:36:05.989Z,15.49
2022-09-15T05:38:32.526Z,15.48
2022-09-15T05:41:03.927Z,15.47
2022-09-15T05:43:32.548Z,15.48
2022-09-15T05:45:58.923Z,15.36
2022-09-15T05:48:26.655Z,15.37
2022-09-15T05:50:54.702Z,15.37
2022-09-15T05:53:22.787Z,15.33
2022-09-15T05:55:53.947Z,15.39
2022-09-15T05:58:20.220Z,15.29
2022-09-15T06:00:46.552Z,15.35
2022-09-15T06:03:15.377Z,15.23
2022-09-15T06:05:42.268Z,15.26
2022-09-15T06:08:09.473Z,15.21
2022-09-15T06:10:36.323Z,15.14
2022-09-15T06:13:02.779Z,15.18
2022-09-15T06:15:29.077Z,15.04
2022-09-15T06:17:55.365Z,15.05
2022-09-15T06:20:22.281Z,15.07
2022-09-15T06:22:48.872Z,15.16
2022-09-15T06:25:15.384Z,15.22
2022-09-15T06:27:41.986Z,15.07
2022-09-15T06:30:09.898Z,15.06
2022-09-15T06:32:36.739Z,15.10
2022-09-15T06:35:07.074Z,15.12
2022-09-15T06:37:34.521Z,15.23
2022-09-15T06:40:01.795Z,15.29
2022-09-15T06:42:28.285Z,15.36
2022-09-15T06:44:54.580Z,15.34
2022-09-15T06:47:21.104Z,15.28
2022-09-15T06:49:47.390Z,15.39
2022-09-15T06:52:13.740Z,15.20
2022-09-15T06:54:40.120Z,15.39
2022-09-15T06:57:06.397Z,15.37
2022-09-15T06:59:32.673Z,15.34
2022-09-15T07:02:04.091Z,15.34
2022-09-15T07:04:37.137Z,15.42
2022-09-15T07:07:03.521Z,15.42
2022-09-15T07:09:29.857Z,15.36
2022-09-15T07:11:56.195Z,15.40
2022-09-15T07:14:22.503Z,15.37
2022-09-15T07:16:48.921Z,15.38
2022-09-15T07:19:15.413Z,15.29
2022-09-15T07:21:41.723Z,15.27
2022-09-15T07:24:10.276Z,15.36
2022-09-15T07:26:37.763Z,15.41
2022-09-15T07:29:06.646Z,15.41
2022-09-15T07:31:35.634Z,15.43
2022-09-15T07:34:02.339Z,15.35
2022-09-15T07:36:29.860Z,15.44
2022-09-15T07:38:56.750Z,15.44
2022-09-15T07:41:25.539Z,15.45
2022-09-15T07:43:54.261Z,15.43
2022-09-15T07:46:22.215Z,15.45
2022-09-15T07:48:53.323Z,15.44
2022-09-15T07:51:20.056Z,15.49
2022-09-15T07:53:47.967Z,15.50
2022-09-15T07:56:16.033Z,15.48
2022-09-15T07:58:42.313Z,15.52
2022-09-15T08:01:14.674Z,15.55
2022-09-15T08:03:42.670Z,15.58
2022-09-15T08:06:09.903Z,15.71
2022-09-15T08:08:38.684Z,15.66
2022-09-15T08:11:07.268Z,15.70
2022-09-15T08:13:33.692Z,15.80
2022-09-15T08:16:12.347Z,15.93
2022-09-15T08:18:42.232Z,15.94
2022-09-15T08:21:13.468Z,15.92
2022-09-15T08:23:40.161Z,15.88
2022-09-15T08:26:13.068Z,15.85
2022-09-15T08:28:40.528Z,15.94
2022-09-15T08:31:13.755Z,16.01
2022-09-15T08:33:44.786Z,16.20
2022-09-15T08:36:12.692Z,16.28
2022-09-15T08:38:46.873Z,16.30
2022-09-15T08:41:29.746Z,16.26
2022-09-15T08:44:00.868Z,16.38
2022-09-15T08:46:54.006Z,16.45
2022-09-15T08:49:50.598Z,16.48
2022-09-15T08:52:38.051Z,16.68
2022-09-15T08:55:12.844Z,16.76
2022-09-15T08:57:39.291Z,16.80
2022-09-15T09:00:25.219Z,16.82
2022-09-15T09:03:14.411Z,16.85
2022-09-15T09:05:53.480Z,16.71
2022-09-15T09:08:34.705Z,16.76
2022-09-15T09:11:16.080Z,16.79
2022-09-15T09:13:52.902Z,16.80
2022-09-15T09:16:32.143Z,16.77
2022-09-15T09:19:33.595Z,16.75
2022-09-15T09:22:05.390Z,16.78
2022-09-15T09:24:42.425Z,16.91
2022-09-15T09:27:18.940Z,17.03
2022-09-15T09:29:51.230Z,17.08
2022-09-15T09:32:38.577Z,17.18
2022-09-15T09:35:34.442Z,17.22
2022-09-15T09:38:02.334Z,17.37
2022-09-15T09:40:31.426Z,17.41
2022-09-15T09:42:57.906Z,17.53
2022-09-15T09:45:24.216Z,17.54
2022-09-15T09:47:50.572Z,17.71
2022-09-15T09:50:35.959Z,17.73
2022-09-15T09:53:17.788Z,17.79
2022-09-15T09:55:45.814Z,17.72
2022-09-15T09:58:17.872Z,17.73
2022-09-15T10:00:44.583Z,17.75
2022-09-15T10:03:28.002Z,17.94
2022-09-15T10:06:18.715Z,18.01
2022-09-15T10:08:53.256Z,18.10
2022-09-15T10:11:19.635Z,17.99
2022-09-15T10:13:54.997Z,17.90
2022-09-15T10:16:22.359Z,18.14
2022-09-15T10:18:54.227Z,18.32
2022-09-15T10:21:24.509Z,18.42
2022-09-15T10:23:50.844Z,18.64
2022-09-15T10:26:31.972Z,18.69
2022-09-15T10:29:16.924Z,18.66
2022-09-15T10:31:44.684Z,18.66
2022-09-15T10:34:31.597Z,18.63
2022-09-15T10:37:16.900Z,18.68
2022-09-15T10:39:54.995Z,18.88
2022-09-15T10:42:44.361Z,18.93
2022-09-15T10:45:18.628Z,18.98
2022-09-15T10:48:02.850Z,19.05
2022-09-15T10:50:36.440Z,19.31
2022-09-15T10:53:27.670Z,19.57
2022-09-15T10:55:56.867Z,19.80
2022-09-15T10:58:32.278Z,19.92
2022-09-15T11:01:27.916Z,20.14
2022-09-15T11:04:22.747Z,20.28
2022-09-15T11:07:03.049Z,20.45
2022-09-15T11:09:32.097Z,20.51
2022-09-15T11:12:17.183Z,20.40
2022-09-15T11:14:55.682Z,20.37
2022-09-15T11:17:37.401Z,20.10
2022-09-15T11:20:15.110Z,19.99
2022-09-15T11:22:49.664Z,20.05
2022-09-15T11:25:23.184Z,19.93
2022-09-15T11:28:00.516Z,19.82
2022-09-15T11:30:35.797Z,19.53
2022-09-15T11:33:27.752Z,19.49
2022-09-15T11:36:07.388Z,19.47
2022-09-15T11:38:53.431Z,19.48
2022-09-15T11:41:30.981Z,19.57
2022-09-15T11:44:16.125Z,19.61
2022-09-15T11:46:57.420Z,19.50
2022-09-15T11:49:31.021Z,19.60
2022-09-15T11:52:14.502Z,19.70
2022-09-15T11:54:56.694Z,19.74
2022-09-15T11:57:34.152Z,19.81
2022-09-15T12:00:12.301Z,19.82
2022-09-15T12:03:16.625Z,19.85
2022-09-15T12:05:50.788Z,19.92
2022-09-15T12:08:20.843Z,20.04
2022-09-15T12:10:52.295Z,20.11
2022-09-15T12:13:21.777Z,20.24
2022-09-15T12:15:49.586Z,20.27
2022-09-15T12:18:38.138Z,20.36
2022-09-15T12:21:23.768Z,20.50
2022-09-15T12:23:56.064Z,20.63
2022-09-15T12:26:25.090Z,20.69
2022-09-15T12:28:51.942Z,20.80
2022-09-15T12:31:39.191Z,20.91
2022-09-15T12:34:25.451Z,21.07
2022-09-15T12:37:07.135Z,21.23
2022-09-15T12:39:41.935Z,21.04
2022-09-15T12:42:24.650Z,21.04
2022-09-15T12:44:53.144Z,21.10
2022-09-15T12:47:21.633Z,21.07
2022-09-15T12:49:51.168Z,20.95
2022-09-15T12:52:20.375Z,20.98
2022-09-15T12:55:00.668Z,20.66
2022-09-15T12:57:37.827Z,20.84
2022-09-15T13:00:42.331Z,20.56
2022-09-15T13:03:50.728Z,20.49
2022-09-15T13:06:30.320Z,20.31
2022-09-15T13:09:02.286Z,20.18
2022-09-15T13:11:36.709Z,20.00
2022-09-15T13:14:13.725Z,19.95
2022-09-15T13:16:40.030Z,19.92
2022-09-15T13:19:41.724Z,19.93
2022-09-15T13:22:10.902Z,19.89
2022-09-15T13:24:48.426Z,19.99
2022-09-15T13:27:19.570Z,20.02
2022-09-15T13:29:50.689Z,20.06
2022-09-15T13:32:40.966Z,20.15
2022-09-15T13:35:22.397Z,20.13
2022-09-15T13:38:13.560Z,20.11
2022-09-15T13:40:52.434Z,20.20
2022-09-15T13:43:43.539Z,20.21
2022-09-15T13:46:38.883Z,20.22
2022-09-15T13:49:29.649Z,20.12
2022-09-15T13:52:07.316Z,20.15
2022-09-15T13:54:33.631Z,20.18
2022-09-15T13:57:01.857Z,20.20
2022-09-15T13:59:30.985Z,20.06
2022-09-15T14:01:58.933Z,20.02
2022-09-15T14:04:31.123Z,20.20
2022-09-15T14:07:01.908Z,20.10
2022-09-15T14:09:57.603Z,20.21
2022-09-15T14:12:24.001Z,20.19
2022-09-15T14:14:53.933Z,20.22
2022-09-15T14:17:28.710Z,20.23
2022-09-15T14:19:57.328Z,20.21
2022-09-15T14:22:29.520Z,20.13
2022-09-15T14:24:57.505Z,20.12
2022-09-15T14:27:27.388Z,20.00
2022-09-15T14:30:00.421Z,20.18
2022-09-15T14:32:28.692Z,20.22
2022-09-15T14:34:59.527Z,20.24
2022-09-15T14:37:32.089Z,20.29
2022-09-15T14:40:00.954Z,20.29
2022-09-15T14:42:35.321Z,20.17
2022-09-15T14:48:02.200Z,20.15
2022-09-15T14:50:32.824Z,20.04
2022-09-15T14:53:05.522Z,20.08
2022-09-15T14:55:43.300Z,20.09
2022-09-15T14:58:30.713Z,20.03
2022-09-15T15:01:23.070Z,19.89
2022-09-15T15:04:09.992Z,19.82
2022-09-15T15:06:54.079Z,19.49
2022-09-15T15:09:29.820Z,19.61
2022-09-15T15:12:00.459Z,19.79
2022-09-15T15:14:27.478Z,19.86
2022-09-15T15:17:00.051Z,19.90
2022-09-15T15:20:12.684Z,19.92
2022-09-15T15:22:41.445Z,19.75
2022-09-15T15:25:28.919Z,19.78
2022-09-15T15:27:59.462Z,19.73
2022-09-15T15:30:36.614Z,19.66
2022-09-15T15:33:27.294Z,19.42
2022-09-15T15:36:08.119Z,19.46
2022-09-15T15:38:50.337Z,19.37
2022-09-15T15:41:22.419Z,19.36
2022-09-15T15:43:59.680Z,19.26
2022-09-15T15:46:53.340Z,19.21
2022-09-15T15:49:21.215Z,19.20
2022-09-15T15:51:47.771Z,19.45
2022-09-15T15:54:14.436Z,19.49
2022-09-15T15:56:40.852Z,19.40
2022-09-15T15:59:09.180Z,19.28
2022-09-15T16:01:35.519Z,19.22
2022-09-15T16:04:01.981Z,19.29
2022-09-15T16:06:28.405Z,19.10
2022-09-15T16:08:58.033Z,18.94
2022-09-15T16:11:24.489Z,18.92
2022-09-15T16:13:50.823Z,19.05
2022-09-15T16:16:22.644Z,18.96
2022-09-15T16:18:49.439Z,18.86
2022-09-15T16:21:22.172Z,18.97
2022-09-15T16:23:48.614Z,18.93
2022-09-15T16:26:20.583Z,18.93
2022-09-15T16:28:46.908Z,18.79
2022-09-15T16:31:14.662Z,18.69
2022-09-15T16:33:42.696Z,18.71
2022-09-15T16:36:13.790Z,18.61
2022-09-15T16:38:40.959Z,18.69
2022-09-15T16:41:16.100Z,18.62
2022-09-15T16:43:43.190Z,18.48
2022-09-15T16:46:14.009Z,18.51
2022-09-15T16:48:42.592Z,18.64
2022-09-15T16:51:31.633Z,18.48
2022-09-15T16:53:58.667Z,18.56
2022-09-15T16:56:25.207Z,18.46
2022-09-15T16:58:59.575Z,18.46
2022-09-15T17:01:26.788Z,18.36
2022-09-15T17:03:53.083Z,18.45
2022-09-15T17:06:19.428Z,18.31
2022-09-15T17:08:46.064Z,18.21
2022-09-15T17:11:16.625Z,18.18
2022-09-15T17:13:44.000Z,18.27
2022-09-15T17:16:12.324Z,18.32
2022-09-15T17:18:38.669Z,18.21
2022-09-15T17:21:05.094Z,18.11
2022-09-15T17:23:35.346Z,18.26
2022-09-15T17:26:04.945Z,18.23
2022-09-15T17:28:33.268Z,18.18
2022-09-15T17:31:05.232Z,18.11
2022-09-15T17:33:32.703Z,18.04
2022-09-15T17:36:00.323Z,17.96
2022-09-15T17:38:27.395Z,17.94
2022-09-15T17:40:55.226Z,17.92
2022-09-15T17:43:24.303Z,17.86
2022-09-15T17:45:51.653Z,17.84
2022-09-15T17:48:18.060Z,17.81
2022-09-15T17:50:45.488Z,17.81
2022-09-15T17:53:14.868Z,17.74
2022-09-15T17:55:41.296Z,17.69
2022-09-15T17:58:08.602Z,17.66
2022-09-15T18:00:37.731Z,17.59
2022-09-15T18:03:28.720Z,17.65
2022-09-15T18:05:58.190Z,17.59
2022-09-15T18:08:25.204Z,17.58
2022-09-15T18:10:51.639Z,17.53
2022-09-15T18:13:22.061Z,17.53
2022-09-15T18:15:48.917Z,17.52
2022-09-15T18:18:19.698Z,17.51
2022-09-15T18:20:46.501Z,17.54
2022-09-15T18:23:15.068Z,17.64
2022-09-15T18:25:42.316Z,17.74
2022-09-15T18:28:09.180Z,17.66
2022-09-15T18:30:40.467Z,17.66
2022-09-15T18:33:22.134Z,17.66
2022-09-15T18:35:51.431Z,17.65
2022-09-15T18:38:17.859Z,17.66
2022-09-15T18:40:55.823Z,17.92
2022-09-15T18:43:24.963Z,17.92
2022-09-15T18:45:53.065Z,17.71
2022-09-15T18:48:19.483Z,17.72
2022-09-15T18:50:45.845Z,17.75
2022-09-15T18:53:12.952Z,17.69
2022-09-15T18:55:42.506Z,17.64
2022-09-15T18:58:10.104Z,17.49
2022-09-15T19:00:36.546Z,17.40
2022-09-15T19:03:05.475Z,17.22
2022-09-15T19:05:32.544Z,17.08
2022-09-15T19:07:58.907Z,17.05
2022-09-15T19:10:26.738Z,16.87
2022-09-15T19:12:53.681Z,16.88
2022-09-15T19:15:23.700Z,16.71
2022-09-15T19:17:50.221Z,16.76
2022-09-15T19:20:17.383Z,16.66
2022-09-15T19:22:43.752Z,16.54
2022-09-15T19:25:11.292Z,16.57
2022-09-15T19:27:39.391Z,16.66
2022-09-15T19:30:09.734Z,16.58
2022-09-15T19:32:36.843Z,16.53
2022-09-15T19:35:03.327Z,16.59
2022-09-15T19:37:29.657Z,16.52
2022-09-15T19:39:56.188Z,16.46
2022-09-15T19:42:22.639Z,16.51
2022-09-15T19:44:49.456Z,16.57
2022-09-15T19:47:16.195Z,16.37
2022-09-15T19:49:42.817Z,16.31
2022-09-15T19:52:09.195Z,16.35
2022-09-15T19:54:35.653Z,16.41
2022-09-15T19:57:02.120Z,16.33
2022-09-15T19:59:31.619Z,16.39
2022-09-15T20:01:59.001Z,16.32
2022-09-15T20:04:25.816Z,16.37
2022-09-15T20:06:52.237Z,16.45
2022-09-15T20:09:18.746Z,16.38
2022-09-15T20:11:45.111Z,16.34
2022-09-15T20:14:11.862Z,16.30
2022-09-15T20:16:38.286Z,16.32
2022-09-15T20:19:04.972Z,16.22
2022-09-15T20:21:50.767Z,16.21
2022-09-15T20:24:19.059Z,16.17
2022-09-15T20:26:45.411Z,16.14
2022-09-15T20:29:12.490Z,16.23
2022-09-15T20:31:39.240Z,16.15
2022-09-15T20:34:05.594Z,16.31
2022-09-15T20:36:35.400Z,16.42
2022-09-15T20:39:03.282Z,16.26
2022-09-15T20:41:31.712Z,16.19
2022-09-15T20:43:58.252Z,16.17
2022-09-15T20:46:25.142Z,16.13
2022-09-15T20:48:52.392Z,16.10
2022-09-15T20:51:22.687Z,15.93
2022-09-15T20:53:51.388Z,15.85
2022-09-15T20:56:21.028Z,15.83
2022-09-15T20:58:47.723Z,15.86
2022-09-15T21:01:19.279Z,15.86
2022-09-15T21:03:46.056Z,15.89
2022-09-15T21:06:15.768Z,16.07
2022-09-15T21:08:42.445Z,15.96
2022-09-15T21:11:14.533Z,15.82
2022-09-15T21:13:42.154Z,15.77
2022-09-15T21:16:11.065Z,15.83
2022-09-15T21:18:39.735Z,15.74
2022-09-15T21:21:36.635Z,15.63
2022-09-15T21:24:08.323Z,15.51
2022-09-15T21:26:58.532Z,15.48
2022-09-15T21:29:26.282Z,15.54
2022-09-15T21:31:52.879Z,15.54
2022-09-15T21:34:19.596Z,15.55
2022-09-15T21:36:46.031Z,15.58
2022-09-15T21:39:12.337Z,15.53
2022-09-15T21:41:38.679Z,15.48
2022-09-15T21:44:05.116Z,15.57
2022-09-15T21:46:31.834Z,15.54
2022-09-15T21:48:59.898Z,15.61
2022-09-15T21:51:28.348Z,15.61
2022-09-15T21:53:56.348Z,15.63
2022-09-15T21:56:24.014Z,15.55
2022-09-15T21:58:50.368Z,15.44
2022-09-15T22:01:19.498Z,15.45
2022-09-15T22:03:50.884Z,15.42
2022-09-15T22:06:19.248Z,15.37
2022-09-15T22:08:46.635Z,15.35
2022-09-15T22:11:13.176Z,15.40
2022-09-15T22:13:41.812Z,15.33
2022-09-15T22:16:12.490Z,15.26
2022-09-15T22:18:40.661Z,15.27
2022-09-15T22:21:13.806Z,15.26
2022-09-15T22:23:41.092Z,15.22
2022-09-15T22:26:13.261Z,15.19
2022-09-15T22:28:39.723Z,15.22
2022-09-15T22:31:09.073Z,15.28
2022-09-15T22:33:35.772Z,15.24
2022-09-15T22:36:02.826Z,15.24
2022-09-15T22:38:30.348Z,15.24
2022-09-15T22:41:02.352Z,15.30
2022-09-15T22:43:28.704Z,15.29
2022-09-15T22:45:55.075Z,15.20
2022-09-15T22:48:21.404Z,15.23
2022-09-15T22:50:47.704Z,15.35
2022-09-15T22:53:14.479Z,15.39
2022-09-15T22:55:41.004Z,15.24
2022-09-15T22:58:07.770Z,15.14
2022-09-15T23:00:36.746Z,15.17
2022-09-15T23:03:03.208Z,15.13
2022-09-15T23:05:29.513Z,15.14
2022-09-15T23:07:55.868Z,15.12
2022-09-15T23:10:22.674Z,15.09
2022-09-15T23:12:49.089Z,15.10
2022-09-15T23:15:15.476Z,15.13
2022-09-15T23:17:41.798Z,15.09
2022-09-15T23:20:09.327Z,15.09
2022-09-15T23:22:35.641Z,15.07
2022-09-15T23:25:01.994Z,15.05
2022-09-15T23:27:28.338Z,15.01
2022-09-15T23:29:54.662Z,15.22
2022-09-15T23:32:20.986Z,15.27
2022-09-15T23:34:47.299Z,15.22
2022-09-15T23:37:13.606Z,15.17
2022-09-15T23:39:40.267Z,15.11
2022-09-15T23:42:07.111Z,15.06
2022-09-15T23:44:33.426Z,15.03
2022-09-15T23:46:59.828Z,15.02
2022-09-15T23:49:26.230Z,15.10
2022-09-15T23:51:52.526Z,15.07
2022-09-15T23:54:18.918Z,15.01
2022-09-15T23:56:45.353Z,15.16
2022-09-15T23:59:11.670Z,15.17
